createdAt,value
2023-05-10T00:01:18.515Z,100710.40
2023-05-10T00:03:47.054Z,100712.20
2023-05-10T00:06:15.416Z,100710.00
2023-05-10T00:08:43.977Z,100707.20
2023-05-10T00:11:12.470Z,100707.20
2023-05-10T00:13:41.287Z,100704.40
2023-05-10T00:16:09.623Z,100700.60
2023-05-10T00:18:38.052Z,100697.40
2023-05-10T00:21:07.391Z,100700.60
2023-05-10T00:23:35.833Z,100697.00
2023-05-10T00:26:04.681Z,100692.80
2023-05-10T00:28:33.064Z,100688.80
2023-05-10T00:31:01.469Z,100690.20
2023-05-10T00:33:32.040Z,100689.40
2023-05-10T00:36:00.451Z,100691.40
2023-05-10T00:38:28.789Z,100689.80
2023-05-10T00:40:57.299Z,100683.80
2023-05-10T00:43:28.967Z,100681.80
2023-05-10T00:45:57.441Z,100683.40
2023-05-10T00:48:25.903Z,100675.80
2023-05-10T00:50:54.280Z,100677.80
2023-05-10T00:53:23.062Z,100678.80
2023-05-10T00:55:52.205Z,100681.60
2023-05-10T00:58:20.974Z,100680.40
2023-05-10T01:00:49.927Z,100681.80
2023-05-10T01:03:18.479Z,100679.60
2023-05-10T01:05:46.858Z,100675.80
2023-05-10T01:08:15.674Z,100678.20
2023-05-10T01:10:44.658Z,100675.80
2023-05-10T01:13:13.923Z,100670.60
2023-05-10T01:15:42.558Z,100667.20
2023-05-10T01:18:11.169Z,100668.80
2023-05-10T01:21:04.285Z,100664.60
2023-05-10T01:24:21.570Z,100663.60
2023-05-10T01:26:58.967Z,100659.00
2023-05-10T01:30:09.226Z,100656.20
2023-05-10T01:32:51.682Z,100658.00
2023-05-10T01:35:43.208Z,100660.60
2023-05-10T01:38:39.373Z,100659.00
2023-05-10T01:41:19.731Z,100658.40
2023-05-10T01:43:54.065Z,100652.60
2023-05-10T01:46:49.302Z,100653.40
2023-05-10T01:49:55.226Z,100651.40
2023-05-10T01:52:31.628Z,100650.80
2023-05-10T01:55:17.266Z,100651.80
2023-05-10T01:57:49.203Z,100652.60
2023-05-10T02:00:20.133Z,100650.40
2023-05-10T02:02:50.343Z,100652.80
2023-05-10T02:05:21.297Z,100648.80
2023-05-10T02:07:51.553Z,100644.60
2023-05-10T02:10:20.864Z,100642.40
2023-05-10T02:12:49.748Z,100648.20
2023-05-10T02:15:22.480Z,100653.80
2023-05-10T02:17:51.344Z,100651.00
2023-05-10T02:20:20.722Z,100647.40
2023-05-10T02:22:53.104Z,100646.20
2023-05-10T02:25:23.377Z,100641.00
2023-05-10T02:27:55.182Z,100645.20
2023-05-10T02:30:25.018Z,100644.20
2023-05-10T02:32:54.028Z,100645.40
2023-05-10T02:35:23.628Z,100651.00
2023-05-10T02:37:52.441Z,100650.00
2023-05-10T02:40:21.094Z,100652.20
2023-05-10T02:42:51.654Z,100646.80
2023-05-10T02:45:23.346Z,100649.00
2023-05-10T02:47:52.025Z,100647.80
2023-05-10T02:50:25.433Z,100649.00
2023-05-10T02:52:57.593Z,100648.40
2023-05-10T02:55:33.471Z,100648.20
2023-05-10T02:58:03.031Z,100650.20
2023-05-10T03:00:32.161Z,100653.00
2023-05-10T03:03:00.633Z,100650.80
2023-05-10T03:05:29.350Z,100650.20
2023-05-10T03:07:58.553Z,100651.60
2023-05-10T03:10:32.334Z,100649.80
2023-05-10T03:13:22.713Z,100652.20
2023-05-10T03:16:11.550Z,100653.40
2023-05-10T03:18:56.067Z,100654.60
2023-05-10T03:21:28.071Z,100656.20
2023-05-10T03:24:10.374Z,100655.40
2023-05-10T03:26:40.107Z,100656.40
2023-05-10T03:29:14.233Z,100654.20
2023-05-10T03:31:43.336Z,100654.00
2023-05-10T03:34:12.457Z,100655.00
2023-05-10T03:36:40.998Z,100652.20
2023-05-10T03:39:10.043Z,100654.60
2023-05-10T03:41:39.095Z,100656.20
2023-05-10T03:44:07.598Z,100653.20
2023-05-10T03:46:36.166Z,100650.00
2023-05-10T03:49:04.993Z,100657.00
2023-05-10T03:51:33.513Z,100650.20
2023-05-10T03:54:01.881Z,100656.40
2023-05-10T03:56:31.193Z,100659.60
2023-05-10T03:59:00.034Z,100658.80
2023-05-10T04:01:28.629Z,100660.20
2023-05-10T04:03:57.268Z,100661.80
2023-05-10T04:06:25.967Z,100661.80
2023-05-10T04:08:54.896Z,100663.40
2023-05-10T04:11:23.796Z,100668.60
2023-05-10T04:13:52.195Z,100661.60
2023-05-10T04:16:20.696Z,100664.60
2023-05-10T04:18:49.858Z,100660.40
2023-05-10T04:21:18.200Z,100662.60
2023-05-10T04:23:46.624Z,100659.80
2023-05-10T04:26:15.177Z,100664.40
2023-05-10T04:28:43.554Z,100662.00
2023-05-10T04:31:12.062Z,100661.80
2023-05-10T04:33:40.466Z,100663.40
2023-05-10T04:36:09.138Z,100664.40
2023-05-10T04:38:37.512Z,100670.60
2023-05-10T04:41:09.892Z,100671.80
2023-05-10T04:43:39.348Z,100672.40
2023-05-10T04:46:08.745Z,100672.00
2023-05-10T04:48:37.217Z,100669.00
2023-05-10T04:51:05.924Z,100666.60
2023-05-10T04:53:34.593Z,100665.20
2023-05-10T04:56:02.947Z,100668.20
2023-05-10T04:58:31.393Z,100670.60
2023-05-10T05:01:06.658Z,100674.20
2023-05-10T05:03:35.423Z,100672.40
2023-05-10T05:06:04.452Z,100673.80
2023-05-10T05:08:32.842Z,100673.00
2023-05-10T05:11:01.168Z,100672.40
2023-05-10T05:13:29.743Z,100667.80
2023-05-10T05:15:58.332Z,100666.60
2023-05-10T05:18:26.633Z,100661.40
2023-05-10T05:20:55.053Z,100663.40
2023-05-10T05:23:25.919Z,100666.20
2023-05-10T05:25:54.566Z,100669.80
2023-05-10T05:28:22.926Z,100667.00
2023-05-10T05:30:51.313Z,100659.80
2023-05-10T05:33:19.780Z,100660.60
2023-05-10T05:35:51.860Z,100661.80
2023-05-10T05:38:20.212Z,100665.60
2023-05-10T05:40:48.737Z,100661.00
2023-05-10T05:43:17.190Z,100663.80
2023-05-10T05:45:45.738Z,100665.80
2023-05-10T05:48:14.159Z,100671.00
2023-05-10T05:50:42.565Z,100673.20
2023-05-10T05:53:11.026Z,100675.20
2023-05-10T05:55:39.415Z,100675.60
2023-05-10T05:58:07.760Z,100676.80
2023-05-10T06:00:36.165Z,100672.20
2023-05-10T06:03:04.962Z,100676.40
2023-05-10T06:05:33.494Z,100679.00
2023-05-10T06:08:02.304Z,100683.00
2023-05-10T06:10:31.695Z,100680.40
2023-05-10T06:13:00.159Z,100681.20
2023-05-10T06:15:28.891Z,100685.40
2023-05-10T06:17:57.835Z,100686.00
2023-05-10T06:20:26.498Z,100687.40
2023-05-10T06:22:54.813Z,100684.60
2023-05-10T06:25:23.279Z,100685.00
2023-05-10T06:27:53.593Z,100684.80
2023-05-10T06:30:24.314Z,100682.40
2023-05-10T06:32:53.057Z,100685.20
2023-05-10T06:35:21.911Z,100684.80
2023-05-10T06:37:50.825Z,100678.80
2023-05-10T06:40:19.670Z,100679.20
2023-05-10T06:42:49.207Z,100677.80
2023-05-10T06:45:17.888Z,100679.40
2023-05-10T06:47:47.032Z,100685.00
2023-05-10T06:50:15.592Z,100685.60
2023-05-10T06:52:44.191Z,100691.40
2023-05-10T06:55:12.921Z,100695.40
2023-05-10T06:57:41.287Z,100694.20
2023-05-10T07:00:11.008Z,100696.40
2023-05-10T07:02:39.550Z,100695.00
2023-05-10T07:05:08.597Z,100697.00
2023-05-10T07:07:37.117Z,100698.40
2023-05-10T07:10:06.319Z,100692.00
2023-05-10T07:12:34.793Z,100702.40
2023-05-10T07:15:03.275Z,100695.80
2023-05-10T07:17:31.912Z,100697.40
2023-05-10T07:20:01.416Z,100695.40
2023-05-10T07:22:29.818Z,100695.20
2023-05-10T07:24:58.228Z,100696.40
2023-05-10T07:27:26.784Z,100702.80
2023-05-10T07:29:55.895Z,100703.40
2023-05-10T07:32:24.322Z,100704.40
2023-05-10T07:34:52.968Z,100704.60
2023-05-10T07:37:21.538Z,100700.20
2023-05-10T07:39:49.949Z,100705.80
2023-05-10T07:42:18.854Z,100704.40
2023-05-10T07:44:47.150Z,100703.80
2023-05-10T07:47:15.645Z,100700.40
2023-05-10T07:49:44.725Z,100707.20
2023-05-10T07:52:13.270Z,100707.40
2023-05-10T07:54:41.663Z,100715.40
2023-05-10T07:57:09.972Z,100708.40
2023-05-10T07:59:38.283Z,100711.40
2023-05-10T08:02:07.379Z,100709.80
2023-05-10T08:04:35.937Z,100711.00
2023-05-10T08:07:04.513Z,100708.20
2023-05-10T08:09:32.972Z,100716.40
2023-05-10T08:12:01.525Z,100714.00
2023-05-10T08:14:31.085Z,100715.60
2023-05-10T08:16:59.459Z,100719.20
2023-05-10T08:19:27.859Z,100714.00
2023-05-10T08:21:58.978Z,100704.40
2023-05-10T08:24:27.487Z,100711.20
2023-05-10T08:26:56.145Z,100709.40
2023-05-10T08:29:25.368Z,100713.60
2023-05-10T08:31:55.003Z,100707.80
2023-05-10T08:34:23.581Z,100714.40
2023-05-10T08:36:52.433Z,100704.80
2023-05-10T08:39:29.888Z,100707.60
2023-05-10T08:42:04.697Z,100708.00
2023-05-10T08:44:35.358Z,100709.20
2023-05-10T08:47:08.324Z,100705.40
2023-05-10T08:49:38.835Z,100706.80
2023-05-10T08:52:08.605Z,100708.00
2023-05-10T08:54:37.999Z,100712.60
2023-05-10T08:57:07.198Z,100719.40
2023-05-10T08:59:35.922Z,100716.60
2023-05-10T09:02:06.227Z,100724.60
2023-05-10T09:04:34.790Z,100721.40
2023-05-10T09:07:03.243Z,100714.00
2023-05-10T09:09:32.709Z,100713.80
2023-05-10T09:12:01.345Z,100709.00
2023-05-10T09:14:30.468Z,100711.80
2023-05-10T09:16:58.981Z,100706.60
2023-05-10T09:19:27.425Z,100705.00
2023-05-10T09:21:56.379Z,100706.60
2023-05-10T09:24:30.225Z,100707.20
2023-05-10T09:26:59.557Z,100699.40
2023-05-10T09:29:40.978Z,100696.60
2023-05-10T09:32:09.412Z,100693.60
2023-05-10T09:34:41.136Z,100689.20
2023-05-10T09:37:09.687Z,100693.60
2023-05-10T09:39:39.227Z,100692.40
2023-05-10T09:42:10.176Z,100686.40
2023-05-10T09:44:39.410Z,100681.00
2023-05-10T09:47:07.890Z,100674.80
2023-05-10T09:49:36.222Z,100676.40
2023-05-10T09:52:06.816Z,100674.20
2023-05-10T09:54:35.835Z,100668.60
2023-05-10T09:57:04.510Z,100670.60
2023-05-10T09:59:36.030Z,100670.00
2023-05-10T10:02:04.717Z,100669.00
2023-05-10T10:04:33.918Z,100673.00
2023-05-10T10:07:05.140Z,100668.60
2023-05-10T10:09:35.216Z,100665.80
2023-05-10T10:12:04.975Z,100670.60
2023-05-10T10:14:33.643Z,100663.60
2023-05-10T10:17:07.407Z,100656.60
2023-05-10T10:19:38.228Z,100665.80
2023-05-10T10:22:07.377Z,100662.20
2023-05-10T10:24:35.889Z,100668.00
2023-05-10T10:27:37.881Z,100666.20
2023-05-10T10:30:24.891Z,100663.00
2023-05-10T10:35:34.166Z,100664.40
2023-05-10T10:38:02.902Z,100661.20
2023-05-10T10:40:34.812Z,100661.80
2023-05-10T10:43:23.261Z,100659.20
2023-05-10T10:46:18.238Z,100653.60
2023-05-10T10:49:09.379Z,100654.80
2023-05-10T10:51:41.008Z,100650.80
2023-05-10T10:54:13.507Z,100654.40
2023-05-10T10:56:41.870Z,100648.80
2023-05-10T10:59:10.247Z,100648.00
2023-05-10T11:01:45.536Z,100648.00
2023-05-10T11:04:15.012Z,100650.80
2023-05-10T11:06:43.793Z,100652.00
2023-05-10T11:09:13.536Z,100644.20
2023-05-10T11:11:56.757Z,100644.00
2023-05-10T11:14:25.608Z,100638.80
2023-05-10T11:16:54.142Z,100639.60
2023-05-10T11:19:22.742Z,100637.00
2023-05-10T11:22:06.071Z,100640.80
2023-05-10T11:24:34.981Z,100642.60
2023-05-10T11:27:03.739Z,100643.20
2023-05-10T11:29:32.164Z,100635.80
2023-05-10T11:32:01.274Z,100638.60
2023-05-10T11:34:51.302Z,100642.40
2023-05-10T11:37:19.899Z,100638.40
2023-05-10T11:39:51.110Z,100640.60
2023-05-10T11:42:19.508Z,100647.00
2023-05-10T11:44:48.600Z,100641.80
2023-05-10T11:47:17.424Z,100635.20
2023-05-10T11:49:46.583Z,100634.80
2023-05-10T11:52:15.254Z,100633.00
2023-05-10T11:55:08.029Z,100638.20
2023-05-10T11:57:39.538Z,100636.20
2023-05-10T12:00:08.770Z,100639.40
2023-05-10T12:02:37.181Z,100634.60
2023-05-10T12:05:07.010Z,100629.00
2023-05-10T12:07:36.132Z,100626.40
2023-05-10T12:10:09.799Z,100627.60
2023-05-10T12:12:43.793Z,100619.20
2023-05-10T12:15:23.288Z,100617.20
2023-05-10T12:17:52.886Z,100618.80
2023-05-10T12:20:23.353Z,100615.60
2023-05-10T12:22:54.156Z,100618.00
2023-05-10T12:25:24.506Z,100614.40
2023-05-10T12:27:54.682Z,100609.40
2023-05-10T12:30:31.186Z,100608.80
2023-05-10T12:33:24.246Z,100610.60
2023-05-10T12:35:54.430Z,100608.60
2023-05-10T12:38:31.894Z,100607.20
2023-05-10T12:41:10.480Z,100602.60
2023-05-10T12:43:39.908Z,100597.20
2023-05-10T12:46:09.933Z,100589.60
2023-05-10T12:48:39.677Z,100588.80
2023-05-10T12:51:18.438Z,100585.60
2023-05-10T12:53:49.733Z,100582.20
2023-05-10T12:56:18.189Z,100578.00
2023-05-10T12:58:49.337Z,100574.20
2023-05-10T13:01:18.063Z,100574.20
2023-05-10T13:03:46.632Z,100576.60
2023-05-10T13:06:15.345Z,100572.40
2023-05-10T13:08:43.716Z,100573.00
2023-05-10T13:11:12.088Z,100572.00
2023-05-10T13:13:40.552Z,100570.20
2023-05-10T13:16:08.920Z,100566.00
2023-05-10T13:18:37.408Z,100563.20
2023-05-10T13:21:06.575Z,100558.80
2023-05-10T13:23:37.243Z,100551.60
2023-05-10T13:26:05.675Z,100549.80
2023-05-10T13:28:34.014Z,100550.20
2023-05-10T13:31:02.437Z,100548.20
2023-05-10T13:33:30.816Z,100547.80
2023-05-10T13:35:59.201Z,100549.60
2023-05-10T13:38:27.527Z,100546.40
2023-05-10T13:40:55.944Z,100547.00
2023-05-10T13:43:25.126Z,100542.60
2023-05-10T13:45:53.652Z,100542.20
2023-05-10T13:48:22.251Z,100540.40
2023-05-10T13:50:50.856Z,100542.60
2023-05-10T13:53:19.527Z,100537.80
2023-05-10T13:55:48.417Z,100542.60
2023-05-10T13:58:16.754Z,100534.00
2023-05-10T14:00:45.097Z,100538.40
2023-05-10T14:03:13.706Z,100541.20
2023-05-10T14:05:42.126Z,100540.40
2023-05-10T14:08:11.196Z,100547.20
2023-05-10T14:10:39.620Z,100541.40
2023-05-10T14:13:07.944Z,100541.80
2023-05-10T14:15:36.287Z,100544.20
2023-05-10T14:18:04.697Z,100546.80
2023-05-10T14:20:34.919Z,100541.80
2023-05-10T14:23:03.598Z,100539.80
2023-05-10T14:25:32.096Z,100539.40
2023-05-10T14:28:00.585Z,100537.00
2023-05-10T14:30:29.056Z,100536.40
2023-05-10T14:32:59.600Z,100535.40
2023-05-10T14:35:29.036Z,100537.00
2023-05-10T14:37:57.684Z,100536.40
2023-05-10T14:40:26.300Z,100529.20
2023-05-10T14:42:54.694Z,100530.60
2023-05-10T14:45:24.208Z,100532.40
2023-05-10T14:47:52.958Z,100528.60
2023-05-10T14:50:35.936Z,100525.60
2023-05-10T14:53:05.231Z,100529.00
2023-05-10T14:55:33.949Z,100528.60
2023-05-10T14:58:03.773Z,100528.00
2023-05-10T15:00:32.352Z,100530.80
2023-05-10T15:03:01.238Z,100532.80
2023-05-10T15:05:30.404Z,100529.20
2023-05-10T15:07:59.049Z,100529.60
2023-05-10T15:10:27.482Z,100527.80
2023-05-10T15:12:56.027Z,100527.20
2023-05-10T15:15:24.422Z,100528.60
2023-05-10T15:17:55.650Z,100525.00
2023-05-10T15:20:24.026Z,100521.80
2023-05-10T15:22:52.399Z,100516.60
2023-05-10T15:25:21.300Z,100516.80
2023-05-10T15:27:49.672Z,100514.40
2023-05-10T15:30:18.009Z,100518.20
2023-05-10T15:32:46.565Z,100515.60
2023-05-10T15:35:15.553Z,100511.60
2023-05-10T15:37:43.988Z,100512.80
2023-05-10T15:40:12.676Z,100513.40
2023-05-10T15:42:41.089Z,100509.40
2023-05-10T15:45:10.126Z,100504.80
2023-05-10T15:47:40.720Z,100503.20
2023-05-10T15:50:10.159Z,100508.00
2023-05-10T15:52:38.708Z,100508.20
2023-05-10T15:55:13.223Z,100506.40
2023-05-10T15:57:43.778Z,100502.80
2023-05-10T16:00:13.452Z,100506.60
2023-05-10T16:02:42.616Z,100505.20
2023-05-10T16:05:11.263Z,100503.40
2023-05-10T16:07:42.037Z,100508.00
2023-05-10T16:10:11.654Z,100507.00
2023-05-10T16:12:40.171Z,100510.40
2023-05-10T16:15:09.438Z,100510.80
2023-05-10T16:17:38.006Z,100510.40
2023-05-10T16:20:07.457Z,100508.80
2023-05-10T16:22:36.522Z,100505.20
2023-05-10T16:25:05.485Z,100509.40
2023-05-10T16:27:34.194Z,100512.40
2023-05-10T16:30:03.258Z,100510.60
2023-05-10T16:32:31.819Z,100512.20
2023-05-10T16:35:00.566Z,100512.60
2023-05-10T16:37:29.127Z,100515.00
2023-05-10T16:39:57.472Z,100512.40
2023-05-10T16:42:26.323Z,100511.60
2023-05-10T16:44:55.157Z,100520.00
2023-05-10T16:47:26.844Z,100513.80
2023-05-10T16:49:55.603Z,100513.60
2023-05-10T16:52:24.016Z,100513.40
2023-05-10T16:54:54.986Z,100511.40
2023-05-10T16:57:23.759Z,100513.60
2023-05-10T16:59:54.813Z,100514.00
2023-05-10T17:02:23.749Z,100515.20
2023-05-10T17:04:53.290Z,100516.00
2023-05-10T17:07:23.009Z,100517.80
2023-05-10T17:09:52.620Z,100515.60
2023-05-10T17:12:20.972Z,100516.40
2023-05-10T17:14:49.442Z,100520.40
2023-05-10T17:17:17.873Z,100521.80
2023-05-10T17:19:46.218Z,100515.60
2023-05-10T17:22:14.616Z,100521.20
2023-05-10T17:24:43.736Z,100516.00
2023-05-10T17:27:12.122Z,100521.40
2023-05-10T17:29:40.561Z,100525.40
2023-05-10T17:32:11.625Z,100525.80
2023-05-10T17:34:40.261Z,100527.60
2023-05-10T17:37:09.507Z,100526.80
2023-05-10T17:39:39.904Z,100530.00
2023-05-10T17:42:08.593Z,100532.80
2023-05-10T17:44:36.969Z,100532.60
2023-05-10T17:47:06.463Z,100538.40
2023-05-10T17:49:34.889Z,100542.40
2023-05-10T17:52:03.705Z,100545.80
2023-05-10T17:54:32.338Z,100548.00
2023-05-10T17:57:01.399Z,100552.80
2023-05-10T17:59:29.733Z,100571.20
2023-05-10T18:01:58.147Z,100572.00
2023-05-10T18:04:26.599Z,100573.20
2023-05-10T18:07:01.572Z,100577.60
2023-05-10T18:09:30.347Z,100585.20
2023-05-10T18:11:58.961Z,100583.20
2023-05-10T18:14:39.846Z,100590.20
2023-05-10T18:17:10.291Z,100600.20
2023-05-10T18:19:38.861Z,100604.40
2023-05-10T18:22:10.542Z,100606.40
2023-05-10T18:24:40.302Z,100610.20
2023-05-10T18:27:09.762Z,100618.20
2023-05-10T18:29:38.500Z,100627.60
2023-05-10T18:32:07.039Z,100626.40
2023-05-10T18:34:35.651Z,100628.80
2023-05-10T18:37:07.901Z,100627.40
2023-05-10T18:39:37.828Z,100634.20
2023-05-10T18:42:06.475Z,100636.40
2023-05-10T18:44:34.914Z,100637.40
2023-05-10T18:47:03.339Z,100631.00
2023-05-10T18:49:32.350Z,100635.60
2023-05-10T18:52:00.798Z,100634.20
2023-05-10T18:54:30.235Z,100637.20
2023-05-10T18:56:59.054Z,100641.00
2023-05-10T18:59:28.180Z,100641.00
2023-05-10T19:01:57.481Z,100638.40
2023-05-10T19:04:26.346Z,100644.00
2023-05-10T19:06:56.096Z,100646.00
2023-05-10T19:09:26.636Z,100642.00
2023-05-10T19:11:55.184Z,100645.80
2023-05-10T19:14:25.416Z,100649.60
2023-05-10T19:16:54.574Z,100648.20
2023-05-10T19:19:23.143Z,100646.80
2023-05-10T19:21:51.436Z,100647.80
2023-05-10T19:24:23.441Z,100653.20
2023-05-10T19:26:52.167Z,100650.60
2023-05-10T19:29:20.538Z,100656.00
2023-05-10T19:31:49.633Z,100652.80
2023-05-10T19:34:18.665Z,100654.00
2023-05-10T19:36:47.121Z,100654.00
2023-05-10T19:39:15.466Z,100660.00
2023-05-10T19:41:43.852Z,100658.40
2023-05-10T19:44:12.342Z,100657.20
2023-05-10T19:46:41.107Z,100663.60
2023-05-10T19:49:09.495Z,100655.60
2023-05-10T19:51:37.833Z,100656.00
2023-05-10T19:54:06.301Z,100652.20
2023-05-10T19:56:34.795Z,100655.00
2023-05-10T19:59:04.056Z,100654.80
2023-05-10T20:01:33.057Z,100656.40
2023-05-10T20:04:01.548Z,100656.60
2023-05-10T20:06:30.090Z,100660.00
2023-05-10T20:08:58.765Z,100659.40
2023-05-10T20:11:27.209Z,100664.80
2023-05-10T20:13:55.582Z,100664.40
2023-05-10T20:16:26.612Z,100660.80
2023-05-10T20:18:55.506Z,100658.20
2023-05-10T20:21:24.158Z,100661.60
2023-05-10T20:23:52.624Z,100659.40
2023-05-10T20:26:21.902Z,100661.00
2023-05-10T20:28:51.385Z,100661.00
2023-05-10T20:31:19.791Z,100658.40
2023-05-10T20:33:48.369Z,100665.20
2023-05-10T20:36:16.914Z,100663.60
2023-05-10T20:38:45.338Z,100659.60
2023-05-10T20:41:13.845Z,100658.80
2023-05-10T20:43:42.396Z,100661.60
2023-05-10T20:46:11.582Z,100663.20
2023-05-10T20:48:40.058Z,100659.20
2023-05-10T20:51:08.464Z,100665.40
2023-05-10T20:53:36.851Z,100662.80
2023-05-10T20:56:05.373Z,100666.20
2023-05-10T20:58:33.893Z,100665.60
2023-05-10T21:01:02.965Z,100666.80
2023-05-10T21:03:31.389Z,100668.20
2023-05-10T21:05:59.779Z,100669.60
2023-05-10T21:08:28.162Z,100667.00
2023-05-10T21:10:56.645Z,100671.20
2023-05-10T21:13:25.171Z,100671.20
2023-05-10T21:15:53.613Z,100669.60
2023-05-10T21:18:22.374Z,100673.80
2023-05-10T21:20:50.967Z,100673.20
2023-05-10T21:23:19.484Z,100674.20
2023-05-10T21:25:47.982Z,100679.40
2023-05-10T21:28:16.536Z,100678.40
2023-05-10T21:30:44.952Z,100678.80
2023-05-10T21:33:13.429Z,100680.40
2023-05-10T21:35:43.186Z,100677.00
2023-05-10T21:38:12.024Z,100678.20
2023-05-10T21:40:40.748Z,100682.20
2023-05-10T21:43:09.794Z,100680.60
2023-05-10T21:45:38.452Z,100680.80
2023-05-10T21:48:07.118Z,100680.00
2023-05-10T21:50:35.545Z,100682.20
2023-05-10T21:53:03.934Z,100680.40
2023-05-10T21:55:32.656Z,100681.20
2023-05-10T21:58:01.022Z,100684.20
2023-05-10T22:00:29.386Z,100683.60
2023-05-10T22:02:57.815Z,100683.40
2023-05-10T22:05:26.338Z,100679.20
2023-05-10T22:07:54.679Z,100678.00
2023-05-10T22:10:22.982Z,100677.00
2023-05-10T22:12:51.886Z,100679.20
2023-05-10T22:15:20.426Z,100681.00
2023-05-10T22:17:48.829Z,100674.80
2023-05-10T22:20:17.306Z,100679.20
2023-05-10T22:22:46.028Z,100677.80
2023-05-10T22:25:14.590Z,100681.40
2023-05-10T22:27:42.974Z,100679.00
2023-05-10T22:30:11.658Z,100684.20
2023-05-10T22:32:40.009Z,100684.60
2023-05-10T22:35:08.832Z,100679.20
2023-05-10T22:37:37.266Z,100684.20
2023-05-10T22:40:06.466Z,100686.80
2023-05-10T22:42:34.971Z,100678.60
2023-05-10T22:45:03.405Z,100683.80
2023-05-10T22:47:31.839Z,100677.00
2023-05-10T22:50:00.257Z,100677.80
2023-05-10T22:52:28.609Z,100675.40
2023-05-10T22:54:57.169Z,100675.60
2023-05-10T22:57:26.230Z,100680.20
2023-05-10T22:59:54.729Z,100679.20
2023-05-10T23:02:23.117Z,100678.60
2023-05-10T23:04:51.773Z,100677.00
2023-05-10T23:07:20.194Z,100680.40
2023-05-10T23:09:49.065Z,100677.20
2023-05-10T23:12:17.495Z,100679.40
2023-05-10T23:14:46.792Z,100676.40
2023-05-10T23:17:15.297Z,100672.60
2023-05-10T23:19:43.710Z,100675.80
2023-05-10T23:22:12.332Z,100671.60
2023-05-10T23:24:40.758Z,100667.00
2023-05-10T23:27:09.486Z,100677.60
2023-05-10T23:29:37.812Z,100678.80
2023-05-10T23:32:06.401Z,100671.80
2023-05-10T23:34:34.914Z,100668.00
2023-05-10T23:37:03.303Z,100668.20
2023-05-10T23:39:32.126Z,100666.20
2023-05-10T23:42:00.535Z,100667.60
2023-05-10T23:44:29.128Z,100673.40
2023-05-10T23:46:57.463Z,100667.40
2023-05-10T23:49:25.775Z,100668.00
2023-05-10T23:51:54.145Z,100659.20
2023-05-10T23:54:22.516Z,100660.20
2023-05-10T23:56:51.748Z,100661.20
2023-05-10T23:59:20.078Z,100663.40
